Time;durP1;ratioP1;P1;durP2;ratioP2;P2;SDS_P1;SDS_P2;PMS_P1;PMS_P2;Temp;Humidity;BMP_temperature;BMP_pressure;BME280_temperature;BME280_humidity;BME280_pressure;Samples;Min_cycle;Max_cycle;Signal;HPM_P1;HPM_P2
2022/12/25 00:01:31;0.00;0.00;0.62;0.00;0.00;0.62;2.13;1.73;;;23.00;28.70;;;;;;2268490;61;20378;-69
2022/12/25 00:04:15;0.00;0.00;0.62;0.00;0.00;0.62;3.90;2.17;;;23.00;28.70;;;;;;2268151;61;20347;-65
2022/12/25 00:07:00;0.00;0.00;0.62;0.00;0.00;0.62;1.97;1.40;;;23.00;28.70;;;;;;2268821;61;20902;-65
2022/12/25 00:09:45;0.00;0.00;0.62;0.00;0.00;0.62;2.00;1.47;;;23.00;28.70;;;;;;2268420;61;20375;-69
2022/12/25 00:12:30;0.00;0.00;0.62;0.00;0.00;0.62;2.10;1.50;;;23.00;28.70;;;;;;2268145;61;20359;-66
2022/12/25 00:15:15;0.00;0.00;0.62;0.00;0.00;0.62;2.63;1.67;;;23.00;28.60;;;;;;2268465;61;20901;-68
2022/12/25 00:18:00;0.00;0.00;0.62;0.00;0.00;0.62;3.00;2.07;;;23.00;28.60;;;;;;2268926;61;20985;-67
2022/12/25 00:20:44;0.00;0.00;0.62;0.00;0.00;0.62;2.73;1.50;;;23.00;28.60;;;;;;2268480;61;20386;-66
2022/12/25 00:23:29;0.00;0.00;0.62;0.00;0.00;0.62;1.80;1.30;;;23.00;28.60;;;;;;2268231;61;20456;-67
2022/12/25 00:26:17;0.00;0.00;0.62;0.00;0.00;0.62;2.00;1.43;;;23.00;29.10;;;;;;2268111;61;20401;-67
2022/12/25 00:29:03;0.00;0.00;0.62;0.00;0.00;0.62;2.63;1.50;;;23.00;28.50;;;;;;2268717;61;20376;-69
2022/12/25 00:31:48;0.00;0.00;0.62;0.00;0.00;0.62;2.00;1.30;;;23.10;28.60;;;;;;2268693;61;20383;-66
2022/12/25 00:34:33;0.00;0.00;0.62;0.00;0.00;0.62;3.70;2.00;;;23.00;28.50;;;;;;2268182;61;20432;-65
2022/12/25 00:37:18;0.00;0.00;0.62;0.00;0.00;0.62;1.83;1.27;;;23.00;28.50;;;;;;2268525;61;20444;-64
2022/12/25 00:40:03;0.00;0.00;0.62;0.00;0.00;0.62;2.27;1.40;;;23.10;28.60;;;;;;2268673;61;20372;-69
2022/12/25 00:42:48;0.00;0.00;0.62;0.00;0.00;0.62;2.37;1.60;;;23.10;28.60;;;;;;2268236;61;20378;-65
2022/12/25 00:45:34;0.00;0.00;0.62;0.00;0.00;0.62;1.83;1.40;;;23.00;28.50;;;;;;2268459;61;20352;-68
2022/12/25 00:48:19;0.00;0.00;0.62;0.00;0.00;0.62;2.60;1.37;;;23.10;28.60;;;;;;2268147;61;20363;-63
2022/12/25 00:51:05;0.00;0.00;0.62;0.00;0.00;0.62;1.90;1.33;;;23.10;28.60;;;;;;2268490;61;20419;-70
2022/12/25 00:53:50;0.00;0.00;0.62;0.00;0.00;0.62;1.80;1.23;;;23.10;28.70;;;;;;2268435;61;20960;-69
2022/12/25 00:56:35;0.00;0.00;0.62;0.00;0.00;0.62;1.80;1.27;;;23.10;28.80;;;;;;2268062;61;20421;-66
2022/12/25 00:59:19;0.00;0.00;0.62;0.00;0.00;0.62;1.70;1.20;;;23.10;28.80;;;;;;2268233;61;20378;-66
2022/12/25 01:02:24;0.00;0.00;0.62;0.00;0.00;0.62;2.50;1.80;;;23.10;28.80;;;;;;2268718;61;20922;-67
2022/12/25 01:05:09;0.00;0.00;0.62;0.00;0.00;0.62;1.80;1.20;;;23.10;28.80;;;;;;2268265;61;20406;-66
2022/12/25 01:07:53;0.00;0.00;0.62;0.00;0.00;0.62;2.40;1.70;;;23.10;28.80;;;;;;2268303;61;20426;-67
2022/12/25 01:10:38;0.00;0.00;0.62;0.00;0.00;0.62;2.20;1.40;;;23.10;28.70;;;;;;2267842;61;20456;-68
2022/12/25 01:13:23;0.00;0.00;0.62;0.00;0.00;0.62;2.13;1.63;;;23.10;28.70;;;;;;2268582;61;20370;-66
2022/12/25 01:16:09;0.00;0.00;0.62;0.00;0.00;0.62;1.87;1.37;;;23.10;28.60;;;;;;2268595;61;20347;-66
2022/12/25 01:18:55;0.00;0.00;0.62;0.00;0.00;0.62;1.60;1.10;;;23.10;28.60;;;;;;2267906;61;20764;-68
2022/12/25 01:21:40;0.00;0.00;0.62;0.00;0.00;0.62;2.17;1.20;;;23.10;28.60;;;;;;2268452;61;20387;-67
2022/12/25 01:24:24;0.00;0.00;0.62;0.00;0.00;0.62;1.70;1.00;;;23.10;28.60;;;;;;2265419;61;20405;-68
2022/12/25 01:27:10;0.00;0.00;0.62;0.00;0.00;0.62;2.10;1.20;;;23.10;28.60;;;;;;2268183;61;20363;-66
2022/12/25 01:29:54;0.00;0.00;0.62;0.00;0.00;0.62;2.03;1.17;;;23.10;28.60;;;;;;2268066;61;20399;-69
2022/12/25 01:32:39;0.00;0.00;0.62;0.00;0.00;0.62;2.00;1.20;;;23.10;28.60;;;;;;2268401;61;20413;-70
2022/12/25 01:35:25;0.00;0.00;0.62;0.00;0.00;0.62;1.80;1.20;;;23.10;28.60;;;;;;2268550;61;20405;-69
2022/12/25 01:38:09;0.00;0.00;0.62;0.00;0.00;0.62;2.47;1.40;;;23.10;29.00;;;;;;2268453;61;20396;-67
2022/12/25 01:40:54;0.00;0.00;0.62;0.00;0.00;0.62;2.30;1.90;;;23.10;28.40;;;;;;2267582;61;20784;-66
2022/12/25 01:44:01;0.00;0.00;0.62;0.00;0.00;0.62;3.77;2.00;;;23.10;28.50;;;;;;2268168;61;20355;-66
2022/12/25 01:46:46;0.00;0.00;0.62;0.00;0.00;0.62;2.70;1.90;;;23.10;28.40;;;;;;2268307;61;20404;-69
2022/12/25 01:49:35;0.00;0.00;0.62;0.00;0.00;0.62;5.17;2.13;;;23.10;28.40;;;;;;2264946;61;20967;-69
2022/12/25 01:52:24;0.00;0.00;0.62;0.00;0.00;0.62;4.53;2.10;;;23.10;28.40;;;;;;2268025;61;20348;-68
2022/12/25 01:55:10;0.00;0.00;0.62;0.00;0.00;0.62;3.83;2.10;;;23.10;28.30;;;;;;2267495;61;20413;-71
2022/12/25 01:57:55;0.00;0.00;0.62;0.00;0.00;0.62;3.10;2.37;;;23.10;28.30;;;;;;2268514;61;20386;-70
2022/12/25 02:00:40;0.00;0.00;0.62;0.00;0.00;0.62;4.33;2.03;;;23.10;28.30;;;;;;2268380;61;20898;-65
2022/12/25 02:03:25;0.00;0.00;0.62;0.00;0.00;0.62;4.67;2.03;;;23.00;28.10;;;;;;2267622;61;20355;-68
2022/12/25 02:06:10;0.00;0.00;0.62;0.00;0.00;0.62;4.03;2.23;;;23.00;28.10;;;;;;2268166;61;20490;-69
2022/12/25 02:08:58;0.00;0.00;0.62;0.00;0.00;0.62;3.97;2.40;;;23.00;28.00;;;;;;2268409;61;20447;-69
2022/12/25 02:11:58;0.00;0.00;0.62;0.00;0.00;0.62;6.00;2.80;;;23.00;28.10;;;;;;2268211;61;20380;-71
2022/12/25 02:14:43;0.00;0.00;0.62;0.00;0.00;0.62;6.03;2.60;;;23.00;28.00;;;;;;2268099;61;20363;-68
2022/12/25 02:17:34;0.00;0.00;0.62;0.00;0.00;0.62;4.70;2.40;;;22.90;28.00;;;;;;2267685;61;20875;-68
2022/12/25 02:20:56;0.00;0.00;0.62;0.00;0.00;0.62;4.13;2.90;;;23.00;28.00;;;;;;2268190;61;20379;-69
2022/12/25 02:24:08;0.00;0.00;0.62;0.00;0.00;0.62;3.73;2.30;;;22.90;27.90;;;;;;2265293;61;20385;-72
2022/12/25 02:27:15;0.00;0.00;0.62;0.00;0.00;0.62;6.43;2.90;;;22.90;27.90;;;;;;2268126;61;20368;-68
2022/12/25 02:30:04;0.00;0.00;0.62;0.00;0.00;0.62;3.83;2.40;;;22.90;27.90;;;;;;2267892;61;20394;-67
2022/12/25 02:34:01;0.00;0.00;0.62;0.00;0.00;0.62;4.30;2.53;;;22.90;28.00;;;;;;2267677;61;20890;-70
2022/12/25 02:36:07;0.00;0.00;0.62;0.00;0.00;0.62;5.60;2.77;;;22.80;27.90;;;;;;2268005;61;20417;-69
2022/12/25 02:42:04;0.00;0.00;0.62;0.00;0.00;0.62;4.37;2.20;;;22.80;27.90;;;;;;2268237;61;20994;-68
2022/12/25 03:06:42;0.00;0.00;0.62;0.00;0.00;0.62;4.50;2.80;;;22.60;28.40;;;;;;2268445;61;20399;-71
2022/12/25 03:12:43;0.00;0.00;0.62;0.00;0.00;0.62;4.10;2.40;;;22.50;27.70;;;;;;2268637;61;20872;-69
2022/12/25 03:18:33;0.00;0.00;0.62;0.00;0.00;0.62;4.00;2.10;;;22.50;27.70;;;;;;2268574;61;20379;-65
2022/12/25 03:27:27;0.00;0.00;0.62;0.00;0.00;0.62;3.53;2.30;;;22.40;27.70;;;;;;2268512;61;20362;-67
2022/12/25 03:33:25;0.00;0.00;0.62;0.00;0.00;0.62;4.27;2.57;;;22.40;27.70;;;;;;2268665;61;20366;-66
2022/12/25 03:36:19;0.00;0.00;0.62;0.00;0.00;0.62;5.27;2.80;;;22.30;27.60;;;;;;2268481;61;20359;-67
2022/12/25 04:37:34;0.00;0.00;0.62;0.00;0.00;0.62;4.00;2.10;;;21.90;27.70;;;;;;2268366;61;20362;-66
2022/12/25 04:40:19;0.00;0.00;0.62;0.00;0.00;0.62;3.53;2.40;;;21.90;27.70;;;;;;2268373;61;20421;-68
2022/12/25 04:43:03;0.00;0.00;0.62;0.00;0.00;0.62;2.83;2.10;;;21.90;27.70;;;;;;2268309;61;20894;-68
2022/12/25 04:45:52;0.00;0.00;0.62;0.00;0.00;0.62;3.70;2.33;;;21.90;27.70;;;;;;2267711;61;20962;-69
2022/12/25 04:48:37;0.00;0.00;0.62;0.00;0.00;0.62;4.07;2.30;;;21.90;27.70;;;;;;2268270;61;20359;-68
2022/12/25 04:51:23;0.00;0.00;0.62;0.00;0.00;0.62;5.93;2.80;;;21.90;27.70;;;;;;2268503;61;20459;-67
2022/12/25 04:54:09;0.00;0.00;0.62;0.00;0.00;0.62;2.80;2.20;;;21.90;27.70;;;;;;2267887;61;20403;-69
2022/12/25 04:56:54;0.00;0.00;0.62;0.00;0.00;0.62;4.00;2.60;;;21.90;27.70;;;;;;2268237;61;20846;-70
2022/12/25 04:59:38;0.00;0.00;0.62;0.00;0.00;0.62;6.00;2.40;;;21.80;27.60;;;;;;2268286;61;20395;-66
2022/12/25 05:02:23;0.00;0.00;0.62;0.00;0.00;0.62;3.90;2.00;;;21.80;27.70;;;;;;2268519;61;20362;-69
2022/12/25 05:05:08;0.00;0.00;0.62;0.00;0.00;0.62;4.13;2.57;;;21.80;27.70;;;;;;2268179;61;20358;-67
2022/12/25 05:07:53;0.00;0.00;0.62;0.00;0.00;0.62;3.10;1.97;;;21.80;27.70;;;;;;2267731;61;20364;-67
2022/12/25 05:10:40;0.00;0.00;0.62;0.00;0.00;0.62;5.57;2.37;;;21.80;27.70;;;;;;2268254;61;20429;-70
2022/12/25 05:13:25;0.00;0.00;0.62;0.00;0.00;0.62;3.63;2.30;;;21.80;27.70;;;;;;2268372;61;20363;-68
2022/12/25 05:16:13;0.00;0.00;0.62;0.00;0.00;0.62;5.43;2.50;;;21.80;27.70;;;;;;2267971;61;20847;-67
2022/12/25 05:18:58;0.00;0.00;0.62;0.00;0.00;0.62;3.40;2.07;;;21.90;27.70;;;;;;2268023;61;21005;-68
2022/12/25 05:21:43;0.00;0.00;0.62;0.00;0.00;0.62;4.20;2.20;;;21.80;27.70;;;;;;2264859;61;20421;-68
2022/12/25 05:24:28;0.00;0.00;0.62;0.00;0.00;0.62;5.33;2.30;;;21.80;27.70;;;;;;2264997;61;20493;-71
2022/12/25 05:27:14;0.00;0.00;0.62;0.00;0.00;0.62;7.57;3.30;;;21.80;27.70;;;;;;2267991;61;20363;-68
2022/12/25 05:29:59;0.00;0.00;0.62;0.00;0.00;0.62;5.33;2.20;;;21.80;27.70;;;;;;2267484;61;20394;-66
2022/12/25 05:32:44;0.00;0.00;0.62;0.00;0.00;0.62;2.97;2.17;;;21.80;27.80;;;;;;2268581;61;20413;-68
2022/12/25 05:35:28;0.00;0.00;0.62;0.00;0.00;0.62;4.13;2.10;;;21.80;27.80;;;;;;2268417;61;20412;-70
2022/12/25 05:38:13;0.00;0.00;0.62;0.00;0.00;0.62;4.77;2.00;;;21.80;27.90;;;;;;2267869;61;20395;-67
2022/12/25 05:40:57;0.00;0.00;0.62;0.00;0.00;0.62;4.53;2.10;;;21.80;27.90;;;;;;2267841;61;20922;-69
2022/12/25 05:43:43;0.00;0.00;0.62;0.00;0.00;0.62;2.97;1.77;;;21.80;27.90;;;;;;2268369;61;20763;-71
2022/12/25 05:46:28;0.00;0.00;0.62;0.00;0.00;0.62;4.97;2.33;;;21.80;27.90;;;;;;2268074;61;20361;-69
2022/12/25 05:49:13;0.00;0.00;0.62;0.00;0.00;0.62;4.20;2.40;;;21.80;27.90;;;;;;2267910;61;20363;-70
2022/12/25 05:51:57;0.00;0.00;0.62;0.00;0.00;0.62;3.67;2.03;;;21.80;27.90;;;;;;2267629;61;20382;-70
2022/12/25 05:54:42;0.00;0.00;0.62;0.00;0.00;0.62;4.67;2.40;;;21.80;27.90;;;;;;2268429;61;20367;-68
2022/12/25 05:57:28;0.00;0.00;0.62;0.00;0.00;0.62;3.33;2.00;;;21.80;27.90;;;;;;2268023;61;20359;-71
2022/12/25 06:00:15;0.00;0.00;0.62;0.00;0.00;0.62;2.90;2.07;;;21.80;27.90;;;;;;2267670;61;20448;-71
2022/12/25 06:02:59;0.00;0.00;0.62;0.00;0.00;0.62;3.70;1.93;;;21.80;27.90;;;;;;2268011;61;20349;-69
2022/12/25 06:05:44;0.00;0.00;0.62;0.00;0.00;0.62;4.93;2.10;;;21.80;27.90;;;;;;2268505;61;20371;-68
2022/12/25 06:08:29;0.00;0.00;0.62;0.00;0.00;0.62;5.83;2.30;;;21.80;27.90;;;;;;2268021;61;20339;-68
2022/12/25 06:11:14;0.00;0.00;0.62;0.00;0.00;0.62;3.03;1.83;;;21.70;27.80;;;;;;2267683;61;20465;-66
2022/12/25 06:13:59;0.00;0.00;0.62;0.00;0.00;0.62;3.90;2.37;;;21.80;27.90;;;;;;2267563;61;20433;-70
2022/12/25 06:16:45;0.00;0.00;0.62;0.00;0.00;0.62;4.57;1.80;;;21.70;27.80;;;;;;2268362;61;20406;-68
2022/12/25 06:19:29;0.00;0.00;0.62;0.00;0.00;0.62;2.20;1.70;;;21.80;27.90;;;;;;2264719;61;20379;-70
2022/12/25 06:22:14;0.00;0.00;0.62;0.00;0.00;0.62;2.77;1.83;;;21.70;27.80;;;;;;2267736;61;20891;-67
2022/12/25 06:24:58;0.00;0.00;0.62;0.00;0.00;0.62;3.30;1.90;;;21.70;27.80;;;;;;2267998;61;20445;-70
2022/12/25 06:27:43;0.00;0.00;0.62;0.00;0.00;0.62;2.43;1.70;;;21.70;27.80;;;;;;2268309;61;20394;-67
2022/12/25 06:30:28;0.00;0.00;0.62;0.00;0.00;0.62;4.37;1.90;;;21.70;27.80;;;;;;2264174;61;20474;-66
2022/12/25 06:33:14;0.00;0.00;0.62;0.00;0.00;0.62;2.93;1.67;;;21.70;27.80;;;;;;2267925;61;20367;-69
2022/12/25 06:35:58;0.00;0.00;0.62;0.00;0.00;0.62;3.77;1.70;;;21.70;27.80;;;;;;2267835;61;20371;-67
2022/12/25 06:38:43;0.00;0.00;0.62;0.00;0.00;0.62;2.50;1.80;;;21.70;27.80;;;;;;2268524;61;20781;-66
2022/12/25 06:41:29;0.00;0.00;0.62;0.00;0.00;0.62;2.63;1.80;;;21.70;27.80;;;;;;2268472;61;20783;-67
2022/12/25 06:44:14;0.00;0.00;0.62;0.00;0.00;0.62;3.03;1.70;;;21.60;27.70;;;;;;2268202;61;20417;-68
2022/12/25 06:46:59;0.00;0.00;0.62;0.00;0.00;0.62;3.50;1.80;;;21.60;27.70;;;;;;2268551;61;20370;-70
2022/12/25 06:49:44;0.00;0.00;0.62;0.00;0.00;0.62;3.13;1.93;;;21.60;27.70;;;;;;2268810;61;20387;-69
2022/12/25 06:52:31;0.00;0.00;0.62;0.00;0.00;0.62;3.87;2.10;;;21.60;27.70;;;;;;2268238;61;20802;-67
2022/12/25 06:55:16;0.00;0.00;0.62;0.00;0.00;0.62;3.60;1.90;;;21.60;27.70;;;;;;2268610;61;20842;-69
2022/12/25 06:58:01;0.00;0.00;0.62;0.00;0.00;0.62;3.20;2.30;;;21.60;27.80;;;;;;2268668;61;20506;-71
2022/12/25 07:00:45;0.00;0.00;0.62;0.00;0.00;0.62;3.60;1.70;;;21.60;27.70;;;;;;2268860;61;20382;-68
2022/12/25 07:03:30;0.00;0.00;0.62;0.00;0.00;0.62;3.40;1.77;;;21.60;27.70;;;;;;2268506;61;20356;-67
2022/12/25 07:06:16;0.00;0.00;0.62;0.00;0.00;0.62;4.20;2.03;;;21.60;27.70;;;;;;2268128;61;20418;-68
2022/12/25 07:09:01;0.00;0.00;0.62;0.00;0.00;0.62;3.87;1.87;;;21.60;27.70;;;;;;2268784;61;20370;-66
2022/12/25 07:11:45;0.00;0.00;0.62;0.00;0.00;0.62;2.77;1.90;;;21.60;27.70;;;;;;2268890;61;20379;-71
2022/12/25 07:14:30;0.00;0.00;0.62;0.00;0.00;0.62;3.50;2.13;;;21.60;27.70;;;;;;2268259;61;20354;-69
2022/12/25 07:17:15;0.00;0.00;0.62;0.00;0.00;0.62;3.20;2.00;;;21.60;27.70;;;;;;2268579;61;20405;-69
2022/12/25 07:20:00;0.00;0.00;0.62;0.00;0.00;0.62;3.17;1.57;;;21.60;27.70;;;;;;2268738;61;20633;-67
2022/12/25 07:22:46;0.00;0.00;0.62;0.00;0.00;0.62;3.20;1.57;;;21.60;27.70;;;;;;2268773;61;20758;-67
2022/12/25 07:25:30;0.00;0.00;0.62;0.00;0.00;0.62;3.07;1.80;;;21.60;28.20;;;;;;2268396;61;20429;-70
2022/12/25 07:28:15;0.00;0.00;0.62;0.00;0.00;0.62;2.50;1.53;;;21.60;27.80;;;;;;2268147;61;20416;-66
2022/12/25 07:31:01;0.00;0.00;0.62;0.00;0.00;0.62;3.27;1.80;;;21.60;27.70;;;;;;2268760;61;20472;-66
2022/12/25 07:33:47;0.00;0.00;0.62;0.00;0.00;0.62;3.60;1.97;;;21.60;27.70;;;;;;2268787;61;20394;-68
2022/12/25 07:36:32;0.00;0.00;0.62;0.00;0.00;0.62;3.27;1.60;;;21.60;27.70;;;;;;2268076;61;20363;-68
2022/12/25 07:39:18;0.00;0.00;0.62;0.00;0.00;0.62;3.90;2.30;;;21.60;27.70;;;;;;2268439;61;20936;-69
2022/12/25 07:42:03;0.00;0.00;0.62;0.00;0.00;0.62;3.33;1.87;;;21.60;27.70;;;;;;2268696;61;20383;-68
2022/12/25 07:44:48;0.00;0.00;0.62;0.00;0.00;0.62;3.40;1.70;;;21.60;27.80;;;;;;2265231;61;20874;-66
2022/12/25 07:47:33;0.00;0.00;0.62;0.00;0.00;0.62;4.27;2.03;;;21.60;27.80;;;;;;2268231;61;20363;-68
2022/12/25 07:50:18;0.00;0.00;0.62;0.00;0.00;0.62;2.47;1.50;;;21.60;27.80;;;;;;2267969;61;20407;-66
2022/12/25 07:53:03;0.00;0.00;0.62;0.00;0.00;0.62;5.20;2.10;;;21.60;27.70;;;;;;2268394;61;20359;-69
2022/12/25 07:55:55;0.00;0.00;0.62;0.00;0.00;0.62;2.53;1.60;;;21.50;27.70;;;;;;2268499;61;20443;-66
2022/12/25 07:58:41;0.00;0.00;0.62;0.00;0.00;0.62;3.63;1.77;;;21.50;27.70;;;;;;2267994;61;20389;-68
2022/12/25 08:01:27;0.00;0.00;0.62;0.00;0.00;0.62;3.20;1.70;;;21.50;27.70;;;;;;2268314;61;20506;-69
2022/12/25 08:04:11;0.00;0.00;0.62;0.00;0.00;0.62;2.43;1.40;;;21.50;27.70;;;;;;2268756;61;20863;-68
2022/12/25 08:06:56;0.00;0.00;0.62;0.00;0.00;0.62;4.50;1.90;;;21.50;27.70;;;;;;2268390;61;20470;-66
2022/12/25 08:09:41;0.00;0.00;0.62;0.00;0.00;0.62;2.47;1.77;;;21.50;27.70;;;;;;2267978;61;20387;-67
2022/12/25 08:12:27;0.00;0.00;0.62;0.00;0.00;0.62;4.37;2.00;;;21.50;27.70;;;;;;2268038;61;20401;-67
2022/12/25 08:15:12;0.00;0.00;0.62;0.00;0.00;0.62;3.80;1.73;;;21.40;28.10;;;;;;2268772;61;20389;-65
2022/12/25 08:17:57;0.00;0.00;0.62;0.00;0.00;0.62;4.00;1.80;;;21.40;27.60;;;;;;2268452;61;20418;-62
2022/12/25 08:20:41;0.00;0.00;0.62;0.00;0.00;0.62;3.50;1.93;;;21.40;27.60;;;;;;2268011;61;20421;-64
2022/12/25 08:23:26;0.00;0.00;0.62;0.00;0.00;0.62;3.10;1.80;;;21.40;27.70;;;;;;2268500;61;20443;-63
2022/12/25 08:26:14;0.00;0.00;0.62;0.00;0.00;0.62;3.53;2.00;;;21.40;27.70;;;;;;2268644;61;20401;-65
2022/12/25 08:29:00;0.00;0.00;0.62;0.00;0.00;0.62;3.40;1.60;;;21.40;27.80;;;;;;2267863;61;20371;-66
2022/12/25 08:31:44;0.00;0.00;0.62;0.00;0.00;0.62;3.27;1.80;;;21.40;27.80;;;;;;2268309;61;20379;-61
2022/12/25 08:34:29;0.00;0.00;0.62;0.00;0.00;0.62;3.20;1.37;;;21.40;27.80;;;;;;2268325;61;20393;-63
2022/12/25 08:37:14;0.00;0.00;0.62;0.00;0.00;0.62;2.60;1.67;;;21.40;27.90;;;;;;2268719;61;20367;-64
2022/12/25 08:39:58;0.00;0.00;0.62;0.00;0.00;0.62;3.20;1.40;;;21.50;27.90;;;;;;2268288;61;20922;-68
2022/12/25 08:42:43;0.00;0.00;0.62;0.00;0.00;0.62;2.53;1.60;;;21.40;27.90;;;;;;2267846;61;20375;-64
2022/12/25 08:45:29;0.00;0.00;0.62;0.00;0.00;0.62;2.33;1.47;;;21.40;27.90;;;;;;2268272;61;20363;-64
2022/12/25 08:48:14;0.00;0.00;0.62;0.00;0.00;0.62;1.90;1.27;;;21.50;28.00;;;;;;2268702;61;20504;-65
2022/12/25 08:50:59;0.00;0.00;0.62;0.00;0.00;0.62;3.50;1.90;;;21.50;28.00;;;;;;2264061;61;20434;-66
2022/12/25 08:53:46;0.00;0.00;0.62;0.00;0.00;0.62;2.50;1.37;;;21.50;28.00;;;;;;2268178;61;20355;-66
2022/12/25 08:56:31;0.00;0.00;0.62;0.00;0.00;0.62;2.50;1.40;;;21.50;28.10;;;;;;2542242;45;21722;-65
2022/12/25 08:59:16;0.00;0.00;0.62;0.00;0.00;0.62;3.10;1.63;;;21.50;28.10;;;;;;2264340;61;20937;-64
2022/12/25 09:02:02;0.00;0.00;0.62;0.00;0.00;0.62;2.97;1.70;;;21.50;28.10;;;;;;2268456;61;20390;-66
2022/12/25 09:04:47;0.00;0.00;0.62;0.00;0.00;0.62;3.87;1.60;;;21.50;28.20;;;;;;2267748;61;20363;-63
2022/12/25 09:07:31;0.00;0.00;0.62;0.00;0.00;0.62;2.43;1.20;;;21.50;28.70;;;;;;2268684;61;20359;-65
2022/12/25 09:10:16;0.00;0.00;0.62;0.00;0.00;0.62;2.53;1.43;;;21.50;28.20;;;;;;2265074;61;20460;-64
2022/12/25 09:13:13;0.00;0.00;0.62;0.00;0.00;0.62;2.27;1.27;;;21.60;28.30;;;;;;2268104;61;20418;-64
2022/12/25 09:16:05;0.00;0.00;0.62;0.00;0.00;0.62;2.20;1.30;;;21.60;28.30;;;;;;2265000;61;20406;-64
2022/12/25 09:18:51;0.00;0.00;0.62;0.00;0.00;0.62;3.83;1.80;;;21.60;28.30;;;;;;2268216;61;20370;-65
2022/12/25 09:21:36;0.00;0.00;0.62;0.00;0.00;0.62;4.07;2.57;;;21.60;28.30;;;;;;2268549;61;21006;-65
2022/12/25 09:24:21;0.00;0.00;0.62;0.00;0.00;0.62;4.13;1.97;;;21.60;28.30;;;;;;2268154;61;20447;-63
2022/12/25 09:27:16;0.00;0.00;0.62;0.00;0.00;0.62;4.17;2.43;;;21.60;28.20;;;;;;2264446;61;20386;-67
2022/12/25 09:30:03;0.00;0.00;0.62;0.00;0.00;0.62;2.90;2.20;;;21.60;28.20;;;;;;2268140;61;20383;-65
2022/12/25 09:32:48;0.00;0.00;0.62;0.00;0.00;0.62;3.60;2.03;;;21.60;28.20;;;;;;2268502;61;20383;-67
2022/12/25 09:35:34;0.00;0.00;0.62;0.00;0.00;0.62;3.47;2.10;;;21.60;28.10;;;;;;2267977;61;20398;-67
2022/12/25 09:38:18;0.00;0.00;0.62;0.00;0.00;0.62;4.20;2.27;;;21.60;28.10;;;;;;2268033;61;20905;-64
2022/12/25 09:41:12;0.00;0.00;0.62;0.00;0.00;0.62;3.00;2.30;;;21.60;28.10;;;;;;2268062;61;20460;-64
2022/12/25 09:44:04;0.00;0.00;0.62;0.00;0.00;0.62;4.13;2.33;;;21.60;28.20;;;;;;2268587;61;20359;-65
2022/12/25 09:46:53;0.00;0.00;0.62;0.00;0.00;0.62;3.03;2.10;;;21.60;28.60;;;;;;2268276;61;20365;-63
2022/12/25 09:49:45;0.00;0.00;0.62;0.00;0.00;0.62;4.30;2.30;;;21.60;28.20;;;;;;2267750;61;20861;-63
2022/12/25 09:52:41;0.00;0.00;0.62;0.00;0.00;0.62;4.33;2.20;;;21.70;28.20;;;;;;2268218;61;20366;-63
2022/12/25 09:55:30;0.00;0.00;0.62;0.00;0.00;0.62;4.90;2.27;;;21.70;28.30;;;;;;2268572;61;20421;-64
2022/12/25 09:58:15;0.00;0.00;0.62;0.00;0.00;0.62;3.20;2.20;;;21.70;28.30;;;;;;2268481;61;20362;-65
2022/12/25 10:01:13;0.00;0.00;0.62;0.00;0.00;0.62;3.80;2.33;;;21.70;28.30;;;;;;2267980;61;20530;-63
2022/12/25 10:04:20;0.00;0.00;0.62;0.00;0.00;0.62;2.67;1.73;;;21.70;28.80;;;;;;2264759;61;20363;-64
2022/12/25 10:07:14;0.00;0.00;0.62;0.00;0.00;0.62;5.60;1.87;;;21.70;28.20;;;;;;2267976;61;20351;-64
2022/12/25 10:10:21;0.00;0.00;0.62;0.00;0.00;0.62;3.10;2.00;;;21.80;28.20;;;;;;2268548;61;20548;-64
2022/12/25 10:13:21;0.00;0.00;0.62;0.00;0.00;0.62;2.77;1.70;;;21.80;28.20;;;;;;2268332;61;20917;-65
2022/12/25 10:16:21;0.00;0.00;0.62;0.00;0.00;0.62;2.23;1.87;;;21.80;28.20;;;;;;2268870;61;20417;-65
2022/12/25 10:19:20;0.00;0.00;0.62;0.00;0.00;0.62;4.93;2.33;;;21.80;28.20;;;;;;2265130;61;20410;-66
2022/12/25 10:22:13;0.00;0.00;0.62;0.00;0.00;0.62;2.97;1.93;;;21.80;28.20;;;;;;2268928;61;20743;-69
2022/12/25 10:24:59;0.00;0.00;0.62;0.00;0.00;0.62;2.80;1.57;;;21.80;28.20;;;;;;2269065;61;20379;-65
2022/12/25 10:27:50;0.00;0.00;0.62;0.00;0.00;0.62;2.97;1.50;;;21.80;28.10;;;;;;2268696;61;20389;-67
2022/12/25 10:30:35;0.00;0.00;0.62;0.00;0.00;0.62;3.73;2.07;;;21.80;28.10;;;;;;2268535;61;20517;-65
2022/12/25 10:33:20;0.00;0.00;0.62;0.00;0.00;0.62;2.33;1.80;;;21.80;28.10;;;;;;2268363;61;20920;-69
2022/12/25 10:36:08;0.00;0.00;0.62;0.00;0.00;0.62;2.83;1.77;;;21.90;28.10;;;;;;2269265;61;20347;-64
2022/12/25 10:38:54;0.00;0.00;0.62;0.00;0.00;0.62;3.57;1.73;;;21.90;28.10;;;;;;2268759;61;20443;-62
2022/12/25 10:42:03;0.00;0.00;0.62;0.00;0.00;0.62;3.33;1.90;;;21.90;28.10;;;;;;2268047;61;20426;-64
2022/12/25 10:44:57;0.00;0.00;0.62;0.00;0.00;0.62;2.90;1.70;;;21.90;28.10;;;;;;2268911;61;20366;-68
2022/12/25 10:47:42;0.00;0.00;0.62;0.00;0.00;0.62;2.13;1.50;;;21.90;28.00;;;;;;2268323;61;20367;-66
2022/12/25 10:50:28;0.00;0.00;0.62;0.00;0.00;0.62;2.50;1.40;;;21.90;28.00;;;;;;2268512;61;20441;-67
2022/12/25 10:53:20;0.00;0.00;0.62;0.00;0.00;0.62;2.07;1.40;;;21.90;28.00;;;;;;2268925;61;20351;-64
2022/12/25 10:56:16;0.00;0.00;0.62;0.00;0.00;0.62;2.40;1.50;;;21.90;27.90;;;;;;2268098;61;20378;-63
2022/12/25 10:59:05;0.00;0.00;0.62;0.00;0.00;0.62;2.40;1.70;;;21.90;28.00;;;;;;2268846;61;20351;-67
2022/12/25 11:01:52;0.00;0.00;0.62;0.00;0.00;0.62;1.90;1.20;;;21.90;27.90;;;;;;2269014;61;20433;-66
2022/12/25 11:04:37;0.00;0.00;0.62;0.00;0.00;0.62;3.07;1.60;;;22.00;28.00;;;;;;2268612;61;20363;-65
2022/12/25 11:07:24;0.00;0.00;0.62;0.00;0.00;0.62;2.53;1.67;;;22.00;28.00;;;;;;2268979;61;20650;-65
2022/12/25 11:10:21;0.00;0.00;0.62;0.00;0.00;0.62;2.30;1.70;;;22.00;28.00;;;;;;2267686;61;21040;-62
2022/12/25 11:13:17;0.00;0.00;0.62;0.00;0.00;0.62;2.50;1.43;;;22.00;28.00;;;;;;2268978;61;20413;-65
2022/12/25 11:16:08;0.00;0.00;0.62;0.00;0.00;0.62;2.20;1.40;;;22.00;28.00;;;;;;2268849;61;20776;-65
2022/12/25 11:18:56;0.00;0.00;0.62;0.00;0.00;0.62;11.33;2.27;;;22.00;28.00;;;;;;2268038;61;20834;-67
2022/12/25 11:21:49;0.00;0.00;0.62;0.00;0.00;0.62;3.40;1.80;;;22.00;28.00;;;;;;2264821;61;20384;-66
2022/12/25 11:24:34;0.00;0.00;0.62;0.00;0.00;0.62;2.60;1.90;;;22.00;28.00;;;;;;2264357;61;20396;-68
2022/12/25 11:27:24;0.00;0.00;0.62;0.00;0.00;0.62;3.00;1.83;;;22.00;28.00;;;;;;2264848;61;20454;-65
2022/12/25 11:30:14;0.00;0.00;0.62;0.00;0.00;0.62;2.27;1.57;;;22.00;28.00;;;;;;2266813;61;20441;-64
2022/12/25 11:33:03;0.00;0.00;0.62;0.00;0.00;0.62;3.67;1.83;;;22.10;28.10;;;;;;2268084;61;20420;-65
2022/12/25 11:35:53;0.00;0.00;0.62;0.00;0.00;0.62;2.90;1.80;;;22.10;28.10;;;;;;2268764;61;20363;-67
2022/12/25 11:38:38;0.00;0.00;0.62;0.00;0.00;0.62;2.50;1.83;;;22.10;28.10;;;;;;2268508;61;20776;-68
2022/12/25 11:41:31;0.00;0.00;0.62;0.00;0.00;0.62;3.83;1.60;;;22.10;28.10;;;;;;2267882;61;20446;-70
2022/12/25 11:44:27;0.00;0.00;0.62;0.00;0.00;0.62;3.53;2.03;;;22.10;28.20;;;;;;2268708;61;20752;-64
2022/12/25 11:47:20;0.00;0.00;0.62;0.00;0.00;0.62;2.70;2.17;;;22.10;28.30;;;;;;2267904;61;20367;-69
2022/12/25 11:50:19;0.00;0.00;0.62;0.00;0.00;0.62;4.33;2.30;;;22.10;28.10;;;;;;2268396;61;20442;-72
2022/12/25 11:53:13;0.00;0.00;0.62;0.00;0.00;0.62;2.37;1.80;;;22.10;28.20;;;;;;2268522;61;20413;-67
2022/12/25 11:56:02;0.00;0.00;0.62;0.00;0.00;0.62;2.97;2.27;;;22.20;28.30;;;;;;2267926;61;20359;-67
2022/12/25 11:58:50;0.00;0.00;0.62;0.00;0.00;0.62;2.60;1.87;;;22.20;28.30;;;;;;2268556;61;20409;-66
2022/12/25 12:01:42;0.00;0.00;0.62;0.00;0.00;0.62;2.63;2.10;;;22.20;28.40;;;;;;2268122;61;20375;-65
2022/12/25 12:04:32;0.00;0.00;0.62;0.00;0.00;0.62;1.93;1.50;;;22.20;28.30;;;;;;2267216;61;20844;-66
2022/12/25 12:07:23;0.00;0.00;0.62;0.00;0.00;0.62;2.73;2.00;;;22.20;28.30;;;;;;2268393;61;20883;-70
2022/12/25 12:10:16;0.00;0.00;0.62;0.00;0.00;0.62;2.63;1.67;;;22.20;28.40;;;;;;2268068;61;20379;-66
2022/12/25 12:13:19;0.00;0.00;0.62;0.00;0.00;0.62;2.67;1.57;;;22.20;28.40;;;;;;2265160;61;20938;-68
2022/12/25 12:16:06;0.00;0.00;0.62;0.00;0.00;0.62;2.33;1.77;;;22.20;28.40;;;;;;2268749;61;20386;-67
2022/12/25 12:18:51;0.00;0.00;0.62;0.00;0.00;0.62;2.53;1.73;;;22.20;28.40;;;;;;2268621;61;20343;-68
2022/12/25 12:21:35;0.00;0.00;0.62;0.00;0.00;0.62;2.60;2.27;;;22.20;28.40;;;;;;2268896;61;20410;-67
2022/12/25 12:24:23;0.00;0.00;0.62;0.00;0.00;0.62;2.97;1.80;;;22.20;28.40;;;;;;2267999;61;20418;-69
2022/12/25 12:27:25;0.00;0.00;0.62;0.00;0.00;0.62;3.00;1.77;;;22.20;28.40;;;;;;2268565;61;20367;-69
2022/12/25 12:30:24;0.00;0.00;0.62;0.00;0.00;0.62;3.27;1.73;;;22.20;28.70;;;;;;2268568;61;20395;-66
2022/12/25 12:33:19;0.00;0.00;0.62;0.00;0.00;0.62;2.30;1.67;;;22.20;28.40;;;;;;2268159;61;20452;-71
2022/12/25 12:36:08;0.00;0.00;0.62;0.00;0.00;0.62;2.30;1.90;;;22.30;28.50;;;;;;2268337;61;20764;-65
2022/12/25 12:38:55;0.00;0.00;0.62;0.00;0.00;0.62;2.90;1.60;;;22.30;28.50;;;;;;2267907;61;20395;-67
2022/12/25 12:41:46;0.00;0.00;0.62;0.00;0.00;0.62;2.30;1.53;;;22.30;28.50;;;;;;2268104;61;20988;-69